createdAt,value
2023-09-29T00:00:41.462Z,0.00
2023-09-29T00:01:01.718Z,0.00
2023-09-29T00:01:32.883Z,0.00
2023-09-29T00:02:05.781Z,0.00
2023-09-29T00:02:36.968Z,0.00
2023-09-29T00:03:10.108Z,0.00
2023-09-29T00:03:40.891Z,0.00
2023-09-29T00:04:13.757Z,0.00
2023-09-29T00:04:44.860Z,0.00
2023-09-29T00:05:17.713Z,0.00
2023-09-29T00:05:48.733Z,0.00
2023-09-29T00:06:21.744Z,0.00
2023-09-29T00:06:52.577Z,0.00
2023-09-29T00:07:25.518Z,0.00
2023-09-29T00:07:56.640Z,0.00
2023-09-29T00:08:29.693Z,0.00
2023-09-29T00:09:00.700Z,0.00
2023-09-29T00:09:33.449Z,0.00
2023-09-29T00:10:04.709Z,0.00
2023-09-29T00:10:37.479Z,0.00
2023-09-29T00:11:08.452Z,0.00
2023-09-29T00:11:41.419Z,0.00
2023-09-29T00:12:12.506Z,0.00
2023-09-29T00:12:45.487Z,0.00
2023-09-29T00:13:16.396Z,0.00
2023-09-29T00:13:49.439Z,0.00
2023-09-29T00:14:21.030Z,0.00
2023-09-29T00:14:53.285Z,0.00
2023-09-29T00:15:36.759Z,0.00
2023-09-29T00:15:57.272Z,0.00
2023-09-29T00:16:28.198Z,0.00
2023-09-29T00:17:01.192Z,0.00
2023-09-29T00:17:32.434Z,0.00
2023-09-29T00:18:05.289Z,0.00
2023-09-29T00:18:36.107Z,0.00
2023-09-29T00:19:09.051Z,0.00
2023-09-29T00:19:40.220Z,0.00
2023-09-29T00:20:13.250Z,0.00
2023-09-29T00:20:44.046Z,0.00
2023-09-29T00:21:17.000Z,0.00
2023-09-29T00:21:48.119Z,0.00
2023-09-29T00:22:20.900Z,0.00
2023-09-29T00:22:51.962Z,0.00
2023-09-29T00:23:25.029Z,0.00
2023-09-29T00:23:56.079Z,0.00
2023-09-29T00:24:28.743Z,0.00
2023-09-29T00:24:59.905Z,0.00
2023-09-29T00:25:33.058Z,0.00
2023-09-29T00:26:03.816Z,0.00
2023-09-29T00:26:36.722Z,0.00
2023-09-29T00:27:07.857Z,0.00
2023-09-29T00:27:40.877Z,0.00
2023-09-29T00:28:11.705Z,0.00
2023-09-29T00:28:44.761Z,0.00
2023-09-29T00:29:15.793Z,0.00
2023-09-29T00:29:48.881Z,0.00
2023-09-29T00:30:32.138Z,0.00
2023-09-29T00:30:52.571Z,0.00
2023-09-29T00:31:23.803Z,0.00
2023-09-29T00:31:56.689Z,0.00
2023-09-29T00:32:27.840Z,0.00
2023-09-29T00:33:00.925Z,0.00
2023-09-29T00:33:31.724Z,0.00
2023-09-29T00:34:04.457Z,0.00
2023-09-29T00:34:35.470Z,0.00
2023-09-29T00:35:08.583Z,0.00
2023-09-29T00:35:39.579Z,0.00
2023-09-29T00:36:12.393Z,0.00
2023-09-29T00:36:43.449Z,0.00
2023-09-29T00:37:16.506Z,0.00
2023-09-29T00:37:47.288Z,0.00
2023-09-29T00:38:20.304Z,0.00
2023-09-29T00:38:51.376Z,0.00
2023-09-29T00:39:24.289Z,0.00
2023-09-29T00:39:55.292Z,0.00
2023-09-29T00:40:28.284Z,0.00
2023-09-29T00:40:59.633Z,0.00
2023-09-29T00:41:32.075Z,0.00
2023-09-29T00:42:03.163Z,0.00
2023-09-29T00:42:36.058Z,0.00
2023-09-29T00:43:07.204Z,0.00
2023-09-29T00:43:40.108Z,0.00
2023-09-29T00:44:11.081Z,0.00
2023-09-29T00:44:44.171Z,0.00
2023-09-29T00:45:27.834Z,0.00
2023-09-29T00:45:47.915Z,0.00
2023-09-29T00:46:19.107Z,0.00
2023-09-29T00:46:51.946Z,0.00
2023-09-29T00:47:22.978Z,0.00
2023-09-29T00:47:55.950Z,0.00
2023-09-29T00:48:27.015Z,0.00
2023-09-29T00:48:59.975Z,0.00
2023-09-29T00:49:30.948Z,0.00
2023-09-29T00:50:03.883Z,0.00
2023-09-29T00:50:35.314Z,0.00
2023-09-29T00:51:07.673Z,0.00
2023-09-29T00:51:38.796Z,0.00
2023-09-29T00:52:11.668Z,0.00
2023-09-29T00:52:42.861Z,0.00
2023-09-29T00:53:15.850Z,0.00
2023-09-29T00:53:46.706Z,0.00
2023-09-29T00:54:19.652Z,0.00
2023-09-29T00:54:50.818Z,0.00
2023-09-29T00:55:23.593Z,0.00
2023-09-29T00:55:54.587Z,0.00
2023-09-29T00:56:27.559Z,0.00
2023-09-29T00:56:58.598Z,0.00
2023-09-29T00:57:31.389Z,0.00
2023-09-29T00:58:02.551Z,0.00
2023-09-29T00:58:36.450Z,0.00
2023-09-29T00:59:06.386Z,0.00
2023-09-29T00:59:39.360Z,0.00
2023-09-29T01:00:23.320Z,0.00
2023-09-29T01:00:43.897Z,0.00
2023-09-29T01:01:14.470Z,0.00
2023-09-29T01:01:47.260Z,0.00
2023-09-29T01:02:18.473Z,0.00
2023-09-29T01:02:51.398Z,0.00
2023-09-29T01:03:22.418Z,0.00
2023-09-29T01:03:55.409Z,0.00
2023-09-29T01:04:26.328Z,0.00
2023-09-29T01:04:59.054Z,0.00
2023-09-29T01:05:30.778Z,0.00
2023-09-29T01:06:03.649Z,0.00
2023-09-29T01:06:34.059Z,0.00
2023-09-29T01:07:06.972Z,0.00
2023-09-29T01:07:38.145Z,0.00
2023-09-29T01:08:11.159Z,0.00
2023-09-29T01:08:42.139Z,0.00
2023-09-29T01:09:14.944Z,0.00
2023-09-29T01:09:46.039Z,0.00
2023-09-29T01:10:19.091Z,0.00
2023-09-29T01:10:49.956Z,0.00
2023-09-29T01:11:23.084Z,0.00
2023-09-29T01:11:54.011Z,0.00
2023-09-29T01:12:26.906Z,0.00
2023-09-29T01:12:57.868Z,0.00
2023-09-29T01:13:30.928Z,0.00
2023-09-29T01:14:02.069Z,0.00
2023-09-29T01:14:34.680Z,0.00
2023-09-29T01:15:18.435Z,0.00
2023-09-29T01:15:38.779Z,0.00
2023-09-29T01:16:09.949Z,0.00
2023-09-29T01:16:42.591Z,0.00
2023-09-29T01:17:13.737Z,0.00
2023-09-29T01:17:46.700Z,0.00
2023-09-29T01:18:18.040Z,0.00
2023-09-29T01:18:50.712Z,0.00
2023-09-29T01:19:21.635Z,0.00
2023-09-29T01:19:54.568Z,0.00
2023-09-29T01:20:25.689Z,0.00
2023-09-29T01:20:58.538Z,0.00
2023-09-29T01:21:29.586Z,0.00
2023-09-29T01:22:02.508Z,0.00
2023-09-29T01:22:33.429Z,0.00
2023-09-29T01:23:06.520Z,0.00
2023-09-29T01:23:37.528Z,0.00
2023-09-29T01:24:10.943Z,0.00
2023-09-29T01:24:41.390Z,0.00
2023-09-29T01:25:14.441Z,0.00
2023-09-29T01:25:45.435Z,0.00
2023-09-29T01:26:18.267Z,0.00
2023-09-29T01:26:49.357Z,0.00
2023-09-29T01:27:22.237Z,0.00
2023-09-29T01:27:53.366Z,0.00
2023-09-29T01:28:26.182Z,0.00
2023-09-29T01:28:57.311Z,0.00
2023-09-29T01:29:30.169Z,0.00
2023-09-29T01:30:13.861Z,0.00
2023-09-29T01:30:34.063Z,0.00
2023-09-29T01:31:05.162Z,0.00
2023-09-29T01:31:38.228Z,0.00
2023-09-29T01:32:09.452Z,0.00
2023-09-29T01:32:42.143Z,0.00
2023-09-29T01:33:13.555Z,0.00
2023-09-29T01:33:46.181Z,0.00
2023-09-29T01:34:17.028Z,0.00
2023-09-29T01:34:49.901Z,0.00
2023-09-29T01:35:21.173Z,0.00
2023-09-29T01:35:53.797Z,0.00
2023-09-29T01:36:24.882Z,0.00
2023-09-29T01:36:57.913Z,0.00
2023-09-29T01:37:28.966Z,0.00
2023-09-29T01:38:02.193Z,0.00
2023-09-29T01:38:33.747Z,0.00
2023-09-29T01:39:05.748Z,0.00
2023-09-29T01:39:36.855Z,0.00
2023-09-29T01:40:09.711Z,0.00
2023-09-29T01:40:40.843Z,0.00
2023-09-29T01:41:13.694Z,0.00
2023-09-29T01:41:44.632Z,0.00
2023-09-29T01:42:17.528Z,0.00
2023-09-29T01:42:48.701Z,0.00
2023-09-29T01:43:21.705Z,0.00
2023-09-29T01:43:52.532Z,0.00
2023-09-29T01:44:26.377Z,0.00
2023-09-29T01:44:56.606Z,0.00
2023-09-29T01:45:42.046Z,0.00
2023-09-29T01:46:00.616Z,0.00
2023-09-29T01:46:33.377Z,0.00
2023-09-29T01:47:04.537Z,0.00
2023-09-29T01:47:37.347Z,0.00
2023-09-29T01:48:08.737Z,0.00
2023-09-29T01:48:41.707Z,0.00
2023-09-29T01:49:12.616Z,0.00
2023-09-29T01:49:45.167Z,0.00
2023-09-29T01:50:16.501Z,0.00
2023-09-29T01:50:49.249Z,0.00
2023-09-29T01:51:20.559Z,0.00
2023-09-29T01:51:53.119Z,0.00
2023-09-29T01:52:24.248Z,0.00
2023-09-29T01:52:57.293Z,0.00
2023-09-29T01:53:28.132Z,0.00
2023-09-29T01:54:01.173Z,0.00
2023-09-29T01:54:32.166Z,0.00
2023-09-29T01:55:05.347Z,0.00
2023-09-29T01:55:36.086Z,0.00
2023-09-29T01:56:09.022Z,0.00
2023-09-29T01:56:40.260Z,0.00
2023-09-29T01:57:13.089Z,0.00
2023-09-29T01:57:43.998Z,0.00
2023-09-29T01:58:16.995Z,0.00
2023-09-29T01:58:48.048Z,0.00
2023-09-29T01:59:20.823Z,0.00
2023-09-29T01:59:51.958Z,0.00
2023-09-29T02:00:37.341Z,0.00
2023-09-29T02:00:56.010Z,0.00
2023-09-29T02:01:28.747Z,0.00
2023-09-29T02:01:59.888Z,0.00
2023-09-29T02:02:32.958Z,0.00
2023-09-29T02:03:03.926Z,0.00
2023-09-29T02:03:36.890Z,0.00
2023-09-29T02:04:07.873Z,0.00
2023-09-29T02:04:40.873Z,0.00
2023-09-29T02:05:12.001Z,0.00
2023-09-29T02:05:44.606Z,0.00
2023-09-29T02:06:15.730Z,0.00
2023-09-29T02:06:48.725Z,0.00
2023-09-29T02:07:19.569Z,0.00
2023-09-29T02:07:52.524Z,0.00
2023-09-29T02:08:23.617Z,0.00
2023-09-29T02:08:56.844Z,0.00
2023-09-29T02:09:27.499Z,0.00
2023-09-29T02:10:00.731Z,0.00
2023-09-29T02:10:31.531Z,0.00
2023-09-29T02:11:04.304Z,0.00
2023-09-29T02:11:35.416Z,0.00
2023-09-29T02:12:08.352Z,0.00
2023-09-29T02:12:39.606Z,0.00
2023-09-29T02:13:12.335Z,0.00
2023-09-29T02:13:43.325Z,0.00
2023-09-29T02:14:16.257Z,0.00
2023-09-29T02:14:47.504Z,0.00
2023-09-29T02:15:32.712Z,0.00
2023-09-29T02:15:51.373Z,0.00
2023-09-29T02:16:24.319Z,0.00
2023-09-29T02:16:55.125Z,0.00
2023-09-29T02:17:28.121Z,0.00
2023-09-29T02:17:59.855Z,0.00
2023-09-29T02:18:32.355Z,0.00
2023-09-29T02:19:03.152Z,0.00
2023-09-29T02:19:35.983Z,0.00
2023-09-29T02:20:07.241Z,0.00
2023-09-29T02:20:39.899Z,0.00
2023-09-29T02:21:11.021Z,0.00
2023-09-29T02:21:43.945Z,0.00
2023-09-29T02:22:15.063Z,0.00
2023-09-29T02:22:47.780Z,0.00
2023-09-29T02:23:18.950Z,0.00
2023-09-29T02:23:52.010Z,0.00
2023-09-29T02:24:22.980Z,0.00
2023-09-29T02:24:55.705Z,0.00
2023-09-29T02:25:26.976Z,0.00
2023-09-29T02:25:59.829Z,0.00
2023-09-29T02:26:31.058Z,0.00
2023-09-29T02:27:03.686Z,0.00
2023-09-29T02:27:35.271Z,0.00
2023-09-29T02:28:07.819Z,0.00
2023-09-29T02:28:38.678Z,0.00
2023-09-29T02:29:11.620Z,0.00
2023-09-29T02:29:42.806Z,0.00
2023-09-29T02:30:28.091Z,0.00
2023-09-29T02:30:46.606Z,0.00
2023-09-29T02:31:19.557Z,0.00
2023-09-29T02:31:50.722Z,0.00
2023-09-29T02:32:23.434Z,0.00
2023-09-29T02:32:54.755Z,0.00
2023-09-29T02:33:27.603Z,0.00
2023-09-29T02:33:58.586Z,0.00
2023-09-29T02:34:31.275Z,0.00
2023-09-29T02:35:02.545Z,0.00
2023-09-29T02:35:35.786Z,0.00
2023-09-29T02:36:06.447Z,0.00
2023-09-29T02:36:39.353Z,0.00
2023-09-29T02:37:10.582Z,0.00
2023-09-29T02:37:43.597Z,0.00
2023-09-29T02:38:14.220Z,0.00
2023-09-29T02:38:47.268Z,0.00
2023-09-29T02:39:18.292Z,0.00
2023-09-29T02:39:51.285Z,0.00
2023-09-29T02:40:22.327Z,0.00
2023-09-29T02:40:55.414Z,0.00
2023-09-29T02:41:26.267Z,0.00
2023-09-29T02:41:59.052Z,0.00
2023-09-29T02:42:30.113Z,0.00
2023-09-29T02:43:03.109Z,0.00
2023-09-29T02:43:34.140Z,0.00
2023-09-29T02:44:06.846Z,0.00
2023-09-29T02:44:38.058Z,0.00
2023-09-29T02:45:23.557Z,0.00
2023-09-29T02:45:41.911Z,0.00
2023-09-29T02:46:14.852Z,0.00
2023-09-29T02:46:45.988Z,0.00
2023-09-29T02:47:18.886Z,0.00
2023-09-29T02:47:50.311Z,0.00
2023-09-29T02:48:23.308Z,0.00
2023-09-29T02:48:54.334Z,0.00
2023-09-29T02:49:26.809Z,0.00
2023-09-29T02:49:57.991Z,0.00
2023-09-29T02:50:30.986Z,0.00
2023-09-29T02:51:01.878Z,0.00
2023-09-29T02:51:34.754Z,0.00
2023-09-29T02:52:05.680Z,0.00
2023-09-29T02:52:38.663Z,0.00
2023-09-29T02:53:09.777Z,0.00
2023-09-29T02:53:42.613Z,0.00
2023-09-29T02:54:13.639Z,0.00
2023-09-29T02:54:46.550Z,0.00
2023-09-29T02:55:18.042Z,0.00
2023-09-29T02:55:50.480Z,0.00
2023-09-29T02:56:21.557Z,0.00
2023-09-29T02:56:54.648Z,0.00
2023-09-29T02:57:25.456Z,0.00
2023-09-29T02:57:58.352Z,0.00
2023-09-29T02:58:29.505Z,0.00
2023-09-29T02:59:02.518Z,0.00
2023-09-29T02:59:33.354Z,0.00
2023-09-29T03:00:19.033Z,0.00
2023-09-29T03:00:38.035Z,0.00
2023-09-29T03:01:10.476Z,0.00
2023-09-29T03:01:41.264Z,0.00
2023-09-29T03:02:14.196Z,0.00
2023-09-29T03:02:45.391Z,0.00
2023-09-29T03:03:18.212Z,0.00
2023-09-29T03:03:49.290Z,0.00
2023-09-29T03:04:22.266Z,0.00
2023-09-29T03:04:53.284Z,0.00
2023-09-29T03:05:26.272Z,0.00
2023-09-29T03:05:57.157Z,0.00
2023-09-29T03:06:30.218Z,0.00
2023-09-29T03:07:01.064Z,0.00
2023-09-29T03:07:34.032Z,0.00
2023-09-29T03:08:05.076Z,0.00
2023-09-29T03:08:38.459Z,0.00
2023-09-29T03:09:08.967Z,0.00
2023-09-29T03:09:41.853Z,0.00
2023-09-29T03:10:13.133Z,0.00
2023-09-29T03:10:45.906Z,0.00
2023-09-29T03:11:16.846Z,0.00
2023-09-29T03:11:49.867Z,0.00
2023-09-29T03:12:20.949Z,0.00
2023-09-29T03:12:53.638Z,0.00
2023-09-29T03:13:24.759Z,0.00
2023-09-29T03:13:58.602Z,0.00
2023-09-29T03:14:28.879Z,0.00
2023-09-29T03:15:14.048Z,0.00
2023-09-29T03:15:32.723Z,0.00
2023-09-29T03:16:05.644Z,0.00
2023-09-29T03:16:36.881Z,0.00
2023-09-29T03:17:09.551Z,0.00
2023-09-29T03:17:40.932Z,0.00
2023-09-29T03:18:13.770Z,0.00
2023-09-29T03:18:44.663Z,0.00
2023-09-29T03:19:17.424Z,0.00
2023-09-29T03:19:48.569Z,0.00
2023-09-29T03:20:22.253Z,0.00
2023-09-29T03:20:52.489Z,0.00
2023-09-29T03:21:25.407Z,0.00
2023-09-29T03:21:56.533Z,0.00
2023-09-29T03:22:29.266Z,0.00
2023-09-29T03:23:00.579Z,0.00
2023-09-29T03:23:33.444Z,0.00
2023-09-29T03:24:04.520Z,0.00
2023-09-29T03:24:37.308Z,0.00
2023-09-29T03:25:08.507Z,0.00
2023-09-29T03:25:41.254Z,0.00
2023-09-29T03:26:12.181Z,0.00
2023-09-29T03:26:45.168Z,0.00
2023-09-29T03:27:16.243Z,0.00
2023-09-29T03:27:49.218Z,0.00
2023-09-29T03:28:20.174Z,0.00
2023-09-29T03:28:53.162Z,0.00
2023-09-29T03:29:24.222Z,0.00
2023-09-29T03:29:57.150Z,0.00
2023-09-29T03:30:40.586Z,0.00
2023-09-29T03:31:00.990Z,0.00
2023-09-29T03:31:32.112Z,0.00
2023-09-29T03:32:04.867Z,0.00
2023-09-29T03:32:36.046Z,0.00
2023-09-29T03:33:09.261Z,0.00
2023-09-29T03:33:40.146Z,0.00
2023-09-29T03:34:12.819Z,0.00
2023-09-29T03:34:43.902Z,0.00
2023-09-29T03:35:16.931Z,0.00
2023-09-29T03:35:48.066Z,0.00
2023-09-29T03:36:20.889Z,0.00
2023-09-29T03:36:51.826Z,0.00
2023-09-29T03:37:24.865Z,0.00
2023-09-29T03:37:55.666Z,0.00
2023-09-29T03:38:28.785Z,0.00
2023-09-29T03:38:59.845Z,0.00
2023-09-29T03:39:32.663Z,0.00
2023-09-29T03:40:03.729Z,0.00
2023-09-29T03:40:36.676Z,0.00
2023-09-29T03:41:07.750Z,0.00
2023-09-29T03:41:40.806Z,0.00
2023-09-29T03:42:11.528Z,0.00
2023-09-29T03:42:44.473Z,0.00
2023-09-29T03:43:15.600Z,0.00
2023-09-29T03:43:48.655Z,0.00
2023-09-29T03:44:19.509Z,0.00
2023-09-29T03:44:52.461Z,0.00
2023-09-29T03:45:36.024Z,0.00
2023-09-29T03:45:56.279Z,0.00
2023-09-29T03:46:27.475Z,0.00
2023-09-29T03:47:00.402Z,0.00
2023-09-29T03:47:31.698Z,0.00
2023-09-29T03:48:04.355Z,0.00
2023-09-29T03:48:35.526Z,0.00
2023-09-29T03:49:08.303Z,0.00
2023-09-29T03:49:39.206Z,0.00
2023-09-29T03:50:12.425Z,0.00
2023-09-29T03:50:43.296Z,0.00
2023-09-29T03:51:16.293Z,0.00
2023-09-29T03:51:47.133Z,0.00
2023-09-29T03:52:20.076Z,0.00
2023-09-29T03:52:51.199Z,0.00
2023-09-29T03:53:24.237Z,0.00
2023-09-29T03:53:55.171Z,0.00
2023-09-29T03:54:27.993Z,0.00
2023-09-29T03:54:59.122Z,0.00
2023-09-29T03:55:32.184Z,0.00
2023-09-29T03:56:03.013Z,0.00
2023-09-29T03:56:35.969Z,0.00
2023-09-29T03:57:07.094Z,0.00
2023-09-29T03:57:39.817Z,0.00
2023-09-29T03:58:10.957Z,0.00
2023-09-29T03:58:43.949Z,0.00
2023-09-29T03:59:14.988Z,0.00
2023-09-29T03:59:47.718Z,0.00
2023-09-29T04:00:31.375Z,0.00
2023-09-29T04:00:51.812Z,0.00
2023-09-29T04:01:22.735Z,0.00
2023-09-29T04:01:55.828Z,0.00
2023-09-29T04:02:26.840Z,0.00
2023-09-29T04:02:59.861Z,0.00
2023-09-29T04:03:30.901Z,0.00
2023-09-29T04:04:03.743Z,0.00
2023-09-29T04:04:34.758Z,0.00
2023-09-29T04:05:07.770Z,0.00
2023-09-29T04:05:38.736Z,0.00
2023-09-29T04:06:11.680Z,0.00
2023-09-29T04:06:42.731Z,0.00
2023-09-29T04:07:15.363Z,0.00
2023-09-29T04:07:46.525Z,0.00
2023-09-29T04:08:19.521Z,0.00
2023-09-29T04:08:50.785Z,0.00
2023-09-29T04:09:23.276Z,0.00
2023-09-29T04:09:54.452Z,0.00
2023-09-29T04:10:27.480Z,0.00
2023-09-29T04:10:58.493Z,0.00
2023-09-29T04:11:31.270Z,0.00
2023-09-29T04:12:02.398Z,0.00
2023-09-29T04:12:35.806Z,0.00
2023-09-29T04:13:06.262Z,0.00
2023-09-29T04:13:39.376Z,0.00
2023-09-29T04:14:17.574Z,0.00
2023-09-29T04:14:43.222Z,0.00
2023-09-29T04:15:26.617Z,0.00
2023-09-29T04:15:47.078Z,0.00
2023-09-29T04:16:18.232Z,0.00
2023-09-29T04:16:50.971Z,0.00
2023-09-29T04:17:22.109Z,0.00
2023-09-29T04:17:55.099Z,0.00
2023-09-29T04:18:26.244Z,0.00
2023-09-29T04:18:58.880Z,0.00
2023-09-29T04:19:30.028Z,0.00
2023-09-29T04:20:03.072Z,0.00
2023-09-29T04:20:34.156Z,0.00
2023-09-29T04:21:06.873Z,0.00
2023-09-29T04:21:37.926Z,0.00
2023-09-29T04:22:10.909Z,0.00
2023-09-29T04:22:41.794Z,0.00
2023-09-29T04:23:14.828Z,0.00
2023-09-29T04:23:45.878Z,0.00
2023-09-29T04:24:18.792Z,0.00
2023-09-29T04:24:49.748Z,0.00
2023-09-29T04:25:22.833Z,0.00
2023-09-29T04:25:53.800Z,0.00
2023-09-29T04:26:26.753Z,0.00
2023-09-29T04:26:57.702Z,0.00
2023-09-29T04:27:30.789Z,0.00
2023-09-29T04:28:01.846Z,0.00
2023-09-29T04:28:36.187Z,0.00
2023-09-29T04:29:05.627Z,0.00
2023-09-29T04:29:38.569Z,0.00
2023-09-29T04:30:22.171Z,0.00
2023-09-29T04:30:42.458Z,0.00
2023-09-29T04:31:13.591Z,0.00
2023-09-29T04:31:46.572Z,0.00
2023-09-29T04:32:17.708Z,0.00
2023-09-29T04:32:50.575Z,0.00
2023-09-29T04:33:21.574Z,0.00
2023-09-29T04:33:54.409Z,0.00
2023-09-29T04:34:25.358Z,0.00
2023-09-29T04:34:59.155Z,0.00
2023-09-29T04:35:29.548Z,0.00
2023-09-29T04:36:02.524Z,0.00
2023-09-29T04:36:33.304Z,0.00
2023-09-29T04:37:06.243Z,0.00
2023-09-29T04:37:37.324Z,0.00
2023-09-29T04:38:10.190Z,0.00
2023-09-29T04:38:41.231Z,0.00
2023-09-29T04:39:14.136Z,0.00
2023-09-29T04:39:45.266Z,0.00
2023-09-29T04:40:18.095Z,0.00
2023-09-29T04:40:49.126Z,0.00
2023-09-29T04:41:22.066Z,0.00
2023-09-29T04:41:53.206Z,0.00
2023-09-29T04:42:25.920Z,0.00
2023-09-29T04:42:57.049Z,0.00
2023-09-29T04:43:30.117Z,0.00
2023-09-29T04:44:00.951Z,0.01
2023-09-29T04:44:34.601Z,0.01
2023-09-29T04:45:17.646Z,0.01
2023-09-29T04:45:37.946Z,0.01
2023-09-29T04:46:08.893Z,0.01
2023-09-29T04:46:41.919Z,0.02
2023-09-29T04:47:12.934Z,0.02
2023-09-29T04:47:45.857Z,0.02
2023-09-29T04:48:16.869Z,0.02
2023-09-29T04:48:49.903Z,0.02
2023-09-29T04:49:20.874Z,0.02
2023-09-29T04:49:53.561Z,0.03
2023-09-29T04:50:24.843Z,0.03
2023-09-29T04:50:57.668Z,0.04
2023-09-29T04:51:28.788Z,0.04
2023-09-29T04:52:01.497Z,0.05
2023-09-29T04:52:32.669Z,0.06
2023-09-29T04:53:05.692Z,0.06
2023-09-29T04:53:36.689Z,0.07
2023-09-29T04:54:09.476Z,0.08
2023-09-29T04:54:40.725Z,0.09
2023-09-29T04:55:13.609Z,0.09
2023-09-29T04:55:44.428Z,0.10
2023-09-29T04:56:17.458Z,0.11
2023-09-29T04:56:48.520Z,0.12
2023-09-29T04:57:22.021Z,0.13
2023-09-29T04:57:52.370Z,0.13
2023-09-29T04:58:25.422Z,0.13
2023-09-29T04:58:56.681Z,0.14
2023-09-29T04:59:29.389Z,0.15
2023-09-29T05:00:13.083Z,0.16
2023-09-29T05:00:35.937Z,0.17
2023-09-29T05:01:04.413Z,0.17
2023-09-29T05:01:37.088Z,0.18
2023-09-29T05:02:08.227Z,0.20
2023-09-29T05:02:41.324Z,0.21
2023-09-29T05:03:12.464Z,0.22
2023-09-29T05:03:45.317Z,0.23
2023-09-29T05:04:16.253Z,0.24
2023-09-29T05:04:49.116Z,0.24
2023-09-29T05:05:20.426Z,0.25
2023-09-29T05:05:52.971Z,0.26
2023-09-29T05:06:24.159Z,0.27
2023-09-29T05:06:57.100Z,0.28
2023-09-29T05:07:27.951Z,0.29
2023-09-29T05:08:00.923Z,0.31
2023-09-29T05:08:32.056Z,0.32
2023-09-29T05:09:06.029Z,0.34
2023-09-29T05:09:35.859Z,0.36
2023-09-29T05:10:09.004Z,0.38
2023-09-29T05:10:39.961Z,0.40
2023-09-29T05:11:12.847Z,0.43
2023-09-29T05:11:43.843Z,0.47
2023-09-29T05:12:16.775Z,0.51
2023-09-29T05:12:47.872Z,0.55
2023-09-29T05:13:20.989Z,0.59
2023-09-29T05:13:51.795Z,0.63
2023-09-29T05:14:24.653Z,0.67
2023-09-29T05:14:55.860Z,0.72
2023-09-29T05:15:41.021Z,0.77
2023-09-29T05:15:59.681Z,0.85
2023-09-29T05:16:32.766Z,0.93
2023-09-29T05:17:03.772Z,1.03
2023-09-29T05:17:48.807Z,1.11
2023-09-29T05:18:07.644Z,1.20
2023-09-29T05:18:40.803Z,1.28
2023-09-29T05:19:11.696Z,1.33
2023-09-29T05:19:44.366Z,1.38
2023-09-29T05:20:15.686Z,1.41
2023-09-29T05:20:48.499Z,1.45
2023-09-29T05:21:19.385Z,1.51
2023-09-29T05:21:52.322Z,1.56
2023-09-29T05:22:23.448Z,1.64
2023-09-29T05:22:56.375Z,1.73
2023-09-29T05:23:27.307Z,1.83
2023-09-29T05:24:00.409Z,1.97
2023-09-29T05:24:31.394Z,2.12
2023-09-29T05:25:04.478Z,2.28
2023-09-29T05:25:35.248Z,2.44
2023-09-29T05:26:08.221Z,2.60
2023-09-29T05:26:39.348Z,2.76
2023-09-29T05:27:13.339Z,2.94
2023-09-29T05:27:43.167Z,3.11
2023-09-29T05:28:16.198Z,3.29
2023-09-29T05:28:47.228Z,3.46
2023-09-29T05:29:20.011Z,3.63
2023-09-29T05:29:51.125Z,3.80
2023-09-29T05:30:36.730Z,3.97
2023-09-29T05:30:55.241Z,4.17
2023-09-29T05:31:27.916Z,4.37
2023-09-29T05:31:59.009Z,4.59
2023-09-29T05:32:32.715Z,4.81
2023-09-29T05:33:03.007Z,5.04
2023-09-29T05:33:36.245Z,5.26
2023-09-29T05:34:06.938Z,5.49
2023-09-29T05:34:39.901Z,5.71
2023-09-29T05:35:11.017Z,5.97
2023-09-29T05:35:43.898Z,6.24
2023-09-29T05:36:14.890Z,6.54
2023-09-29T05:36:47.716Z,6.85
2023-09-29T05:37:18.746Z,7.20
2023-09-29T05:37:51.664Z,7.54
2023-09-29T05:38:22.807Z,7.90
2023-09-29T05:38:55.973Z,8.29
2023-09-29T05:39:26.669Z,8.67
2023-09-29T05:39:59.608Z,9.04
2023-09-29T05:40:31.039Z,9.40
2023-09-29T05:41:04.405Z,9.70
2023-09-29T05:41:34.668Z,9.98
2023-09-29T05:42:07.588Z,10.22
2023-09-29T05:42:51.713Z,10.40
2023-09-29T05:43:14.457Z,10.51
2023-09-29T05:43:42.529Z,10.52
2023-09-29T05:44:15.490Z,10.48
2023-09-29T05:44:46.438Z,10.38
2023-09-29T05:45:31.799Z,10.19
2023-09-29T05:45:50.563Z,9.90
2023-09-29T05:46:23.436Z,9.57
2023-09-29T05:46:54.352Z,9.23
2023-09-29T05:47:27.345Z,8.92
2023-09-29T05:47:58.475Z,8.58
2023-09-29T05:48:31.217Z,8.23
2023-09-29T05:49:02.311Z,7.86
2023-09-29T05:49:35.189Z,7.49
2023-09-29T05:50:17.556Z,7.16
2023-09-29T05:50:39.126Z,6.90
2023-09-29T05:51:10.282Z,6.69
2023-09-29T05:51:43.161Z,6.53
2023-09-29T05:52:14.269Z,6.40
2023-09-29T05:52:59.748Z,6.30
2023-09-29T05:53:18.134Z,6.24
2023-09-29T05:53:51.174Z,6.20
2023-09-29T05:54:22.067Z,6.22
2023-09-29T05:54:55.066Z,6.29
2023-09-29T05:55:26.185Z,6.42
2023-09-29T05:55:58.977Z,6.61
2023-09-29T05:56:29.959Z,6.84
2023-09-29T05:57:02.928Z,7.06
2023-09-29T05:57:33.993Z,7.26
2023-09-29T05:58:08.320Z,7.40
2023-09-29T05:58:37.840Z,7.56
2023-09-29T05:59:10.828Z,7.74
2023-09-29T05:59:41.938Z,8.00
2023-09-29T06:00:27.396Z,8.34
2023-09-29T06:00:45.783Z,8.77
2023-09-29T06:01:18.730Z,9.22
2023-09-29T06:01:49.886Z,9.69
2023-09-29T06:02:22.595Z,10.13
2023-09-29T06:02:53.767Z,10.53
2023-09-29T06:03:28.237Z,10.90
2023-09-29T06:03:57.932Z,11.26
2023-09-29T06:04:30.820Z,11.59
2023-09-29T06:05:01.792Z,11.89
2023-09-29T06:05:35.750Z,12.19
2023-09-29T06:06:05.583Z,12.45
2023-09-29T06:06:38.472Z,12.78
2023-09-29T06:07:09.573Z,13.16
2023-09-29T06:07:42.524Z,13.59
2023-09-29T06:08:13.446Z,14.03
2023-09-29T06:08:54.445Z,14.44
2023-09-29T06:09:17.543Z,14.81
2023-09-29T06:09:51.409Z,15.11
2023-09-29T06:10:21.465Z,15.30
2023-09-29T06:10:54.293Z,15.42
2023-09-29T06:11:25.429Z,15.52
2023-09-29T06:11:58.186Z,15.68
2023-09-29T06:12:29.322Z,15.90
2023-09-29T06:13:04.989Z,16.13
2023-09-29T06:13:33.358Z,16.42
2023-09-29T06:14:06.110Z,16.84
2023-09-29T06:14:37.264Z,17.40
2023-09-29T06:15:22.684Z,18.04
2023-09-29T06:15:41.099Z,18.75
2023-09-29T06:16:14.060Z,19.46
2023-09-29T06:16:45.358Z,20.14
2023-09-29T06:17:18.102Z,20.81
2023-09-29T06:17:49.127Z,21.52
2023-09-29T06:18:22.200Z,22.32
2023-09-29T06:18:53.324Z,23.20
2023-09-29T06:19:25.839Z,24.24
2023-09-29T06:19:56.951Z,25.40
2023-09-29T06:20:30.207Z,26.55
2023-09-29T06:21:01.100Z,27.56
2023-09-29T06:21:34.675Z,28.33
2023-09-29T06:22:04.895Z,28.78
2023-09-29T06:22:37.856Z,28.98
2023-09-29T06:23:08.789Z,28.82
2023-09-29T06:23:41.962Z,28.37
2023-09-29T06:24:12.899Z,27.74
2023-09-29T06:24:45.614Z,26.87
2023-09-29T06:25:16.851Z,25.82
2023-09-29T06:25:49.693Z,24.64
2023-09-29T06:26:20.911Z,23.50
2023-09-29T06:26:53.604Z,22.45
2023-09-29T06:27:24.687Z,21.67
2023-09-29T06:27:58.569Z,21.14
2023-09-29T06:28:28.786Z,20.98
2023-09-29T06:29:01.525Z,21.10
2023-09-29T06:29:32.670Z,21.43
2023-09-29T06:30:18.176Z,21.93
2023-09-29T06:30:36.542Z,22.53
2023-09-29T06:31:09.454Z,23.16
2023-09-29T06:31:40.741Z,23.77
2023-09-29T06:32:13.463Z,24.36
2023-09-29T06:32:44.512Z,24.88
2023-09-29T06:33:17.502Z,25.43
2023-09-29T06:33:48.548Z,26.05
2023-09-29T06:34:21.513Z,26.76
2023-09-29T06:34:52.323Z,27.52
2023-09-29T06:35:25.397Z,28.31
2023-09-29T06:35:56.396Z,29.18
2023-09-29T06:36:29.267Z,30.03
2023-09-29T06:37:00.457Z,30.86
2023-09-29T06:37:33.298Z,31.67
2023-09-29T06:38:04.333Z,32.45
2023-09-29T06:38:37.187Z,33.23
2023-09-29T06:39:08.260Z,33.85
2023-09-29T06:39:41.164Z,34.25
2023-09-29T06:40:12.215Z,34.40
2023-09-29T06:40:45.018Z,34.32
2023-09-29T06:41:18.208Z,34.03
2023-09-29T06:41:49.102Z,33.46
2023-09-29T06:42:20.032Z,32.72
2023-09-29T06:42:52.958Z,31.89
2023-09-29T06:43:24.057Z,30.96
2023-09-29T06:43:57.097Z,30.06
2023-09-29T06:44:27.965Z,29.25
2023-09-29T06:45:13.635Z,28.53
2023-09-29T06:45:40.829Z,27.81
2023-09-29T06:46:04.754Z,27.13
2023-09-29T06:46:35.939Z,26.49
2023-09-29T06:47:08.828Z,25.94
2023-09-29T06:47:39.853Z,25.47
2023-09-29T06:48:12.936Z,25.11
2023-09-29T06:48:43.930Z,24.94
2023-09-29T06:49:16.759Z,24.78
2023-09-29T06:49:47.705Z,24.62
2023-09-29T06:50:20.905Z,24.43
2023-09-29T06:50:51.884Z,24.11
2023-09-29T06:51:24.671Z,23.71
2023-09-29T06:51:55.738Z,23.29
2023-09-29T06:52:28.645Z,22.97
2023-09-29T06:52:59.810Z,22.74
2023-09-29T06:53:33.099Z,22.60
2023-09-29T06:54:03.631Z,22.59
2023-09-29T06:54:36.618Z,22.68
2023-09-29T06:55:07.551Z,22.89
2023-09-29T06:55:40.458Z,23.14
2023-09-29T06:56:11.531Z,23.35
2023-09-29T06:56:44.497Z,23.58
2023-09-29T06:57:15.461Z,23.87
2023-09-29T06:57:48.435Z,24.19
2023-09-29T06:58:19.637Z,24.40
2023-09-29T06:58:52.285Z,24.39
2023-09-29T06:59:23.317Z,24.20
2023-09-29T06:59:56.318Z,23.78
2023-09-29T07:00:39.912Z,23.48
2023-09-29T07:01:02.520Z,22.40
2023-09-29T07:01:31.278Z,21.70
2023-09-29T07:02:04.297Z,21.29
2023-09-29T07:02:35.405Z,21.14
2023-09-29T07:03:08.221Z,21.29
2023-09-29T07:03:39.250Z,21.73